Time;durP1;ratioP1;P1;durP2;ratioP2;P2;SDS_P1;SDS_P2;PMS_P1;PMS_P2;Temp;Humidity;BMP_temperature;BMP_pressure;BME280_temperature;BME280_humidity;BME280_pressure;Samples;Min_cycle;Max_cycle;Signal;HPM_P1;HPM_P2
2023/10/23 00:03:07;;;;;;;0.80;0.80;;;;;;;;;;10386113;28;20215;-74
2023/10/23 00:08:08;;;;;;;0.68;0.68;;;;;;;;;;10362276;28;20667;-76
2023/10/23 00:13:09;;;;;;;1.85;1.30;;;;;;;;;;10369023;28;20228;-75
2023/10/23 00:18:10;;;;;;;1.20;1.20;;;;;;;;;;10344712;28;20217;-75
2023/10/23 00:23:11;;;;;;;1.00;0.93;;;;;;;;;;10342711;28;20258;-76
2023/10/23 00:28:12;;;;;;;0.90;0.90;;;;;;;;;;10348495;28;20228;-76
2023/10/23 00:33:13;;;;;;;0.90;0.90;;;;;;;;;;10352840;28;20326;-75
2023/10/23 00:38:14;;;;;;;1.17;1.10;;;;;;;;;;10353096;28;20266;-75
2023/10/23 00:43:19;;;;;;;1.25;1.15;;;;;;;;;;10337989;28;20216;-75
2023/10/23 00:48:21;;;;;;;0.90;0.90;;;;;;;;;;10359138;28;20705;-75
2023/10/23 00:53:23;;;;;;;2.40;1.02;;;;;;;;;;10343160;28;20223;-74
2023/10/23 00:58:27;;;;;;;1.17;1.02;;;;;;;;;;10340348;28;20215;-75
2023/10/23 01:03:28;;;;;;;1.27;1.00;;;;;;;;;;10348766;28;20219;-75
2023/10/23 01:08:30;;;;;;;0.82;0.82;;;;;;;;;;10352029;28;20496;-76
2023/10/23 01:13:31;;;;;;;0.93;0.93;;;;;;;;;;10371567;28;20642;-74
2023/10/23 01:18:32;;;;;;;1.85;0.73;;;;;;;;;;10340083;28;20303;-74
2023/10/23 01:23:35;;;;;;;1.38;0.93;;;;;;;;;;10342683;28;20232;-75
2023/10/23 01:28:36;;;;;;;0.70;0.70;;;;;;;;;;10326205;28;20324;-76
2023/10/23 01:33:38;;;;;;;0.80;0.80;;;;;;;;;;10320287;28;20223;-76
2023/10/23 01:38:39;;;;;;;0.93;0.93;;;;;;;;;;10350426;28;20246;-74
2023/10/23 01:43:40;;;;;;;0.75;0.75;;;;;;;;;;10357695;28;20213;-75
2023/10/23 01:48:42;;;;;;;0.70;0.70;;;;;;;;;;10381366;28;20214;-76
2023/10/23 01:53:43;;;;;;;0.90;0.90;;;;;;;;;;10385451;28;20207;-74
2023/10/23 01:58:44;;;;;;;0.65;0.65;;;;;;;;;;10393411;28;20302;-75
2023/10/23 02:03:45;;;;;;;1.00;1.00;;;;;;;;;;10379122;28;20677;-74
2023/10/23 02:08:46;;;;;;;0.70;0.70;;;;;;;;;;10377289;28;20311;-75
2023/10/23 02:13:47;;;;;;;0.70;0.70;;;;;;;;;;10372827;28;20306;-74
2023/10/23 02:18:48;;;;;;;1.02;1.02;;;;;;;;;;10360887;28;20583;-76
2023/10/23 02:23:50;;;;;;;0.77;0.77;;;;;;;;;;10369115;28;20220;-75
2023/10/23 02:28:51;;;;;;;0.80;0.80;;;;;;;;;;10379209;28;20840;-75
2023/10/23 02:33:52;;;;;;;0.95;0.95;;;;;;;;;;10375785;28;20215;-76
2023/10/23 02:38:53;;;;;;;0.60;0.60;;;;;;;;;;10378500;28;20560;-75
2023/10/23 02:43:54;;;;;;;1.05;0.98;;;;;;;;;;10385394;28;20233;-75
2023/10/23 02:48:55;;;;;;;0.73;0.73;;;;;;;;;;10393083;28;20353;-74
2023/10/23 02:53:56;;;;;;;0.90;0.88;;;;;;;;;;10393202;28;20226;-75
2023/10/23 02:58:57;;;;;;;1.20;1.10;;;;;;;;;;10391374;28;20212;-75
2023/10/23 03:03:59;;;;;;;1.05;0.80;;;;;;;;;;10389603;28;20227;-75
2023/10/23 03:09:00;;;;;;;1.00;1.00;;;;;;;;;;10389061;28;20216;-75
2023/10/23 03:14:02;;;;;;;0.90;0.90;;;;;;;;;;10387004;28;20216;-76
2023/10/23 03:19:04;;;;;;;0.88;0.88;;;;;;;;;;10384977;28;20211;-76
2023/10/23 03:24:05;;;;;;;0.98;0.98;;;;;;;;;;10388226;28;20377;-75
2023/10/23 03:29:06;;;;;;;0.80;0.80;;;;;;;;;;10381226;28;21177;-75
2023/10/23 03:34:07;;;;;;;0.70;0.70;;;;;;;;;;10386159;28;20221;-78
2023/10/23 03:39:09;;;;;;;0.80;0.80;;;;;;;;;;10392358;28;20215;-75
2023/10/23 03:44:10;;;;;;;1.23;0.93;;;;;;;;;;10380176;28;20298;-77
2023/10/23 03:49:11;;;;;;;0.93;0.88;;;;;;;;;;10384396;28;20215;-74
2023/10/23 03:54:12;;;;;;;1.20;1.20;;;;;;;;;;10390976;28;20496;-75
2023/10/23 03:59:13;;;;;;;2.33;1.00;;;;;;;;;;10384595;28;20546;-76
2023/10/23 04:04:14;;;;;;;1.55;1.55;;;;;;;;;;10384784;28;20219;-74
2023/10/23 04:09:15;;;;;;;1.17;1.17;;;;;;;;;;10386814;28;20215;-76
2023/10/23 04:14:16;;;;;;;1.67;1.27;;;;;;;;;;10386755;28;20258;-74
2023/10/23 04:19:17;;;;;;;0.85;0.85;;;;;;;;;;10385224;28;20215;-76
2023/10/23 04:24:18;;;;;;;1.05;1.05;;;;;;;;;;10373826;28;20216;-76
2023/10/23 04:29:20;;;;;;;1.05;1.05;;;;;;;;;;10390062;28;20244;-74
2023/10/23 04:34:21;;;;;;;1.00;1.00;;;;;;;;;;10385478;28;20230;-75
2023/10/23 04:39:22;;;;;;;1.02;1.02;;;;;;;;;;10381655;28;20223;-76
2023/10/23 04:44:25;;;;;;;1.10;1.10;;;;;;;;;;10383304;28;20302;-77
2023/10/23 04:49:26;;;;;;;1.33;1.33;;;;;;;;;;10384848;28;20219;-76
2023/10/23 04:54:27;;;;;;;1.40;1.40;;;;;;;;;;10379615;28;20230;-75
2023/10/23 04:59:28;;;;;;;1.50;1.25;;;;;;;;;;10382785;28;20771;-75
2023/10/23 05:04:30;;;;;;;1.38;1.27;;;;;;;;;;10387139;28;20216;-75
2023/10/23 05:09:31;;;;;;;1.33;1.27;;;;;;;;;;10380606;28;20294;-74
2023/10/23 05:14:33;;;;;;;1.85;1.70;;;;;;;;;;10381751;28;20215;-74
2023/10/23 05:19:34;;;;;;;1.55;1.55;;;;;;;;;;10391248;28;20318;-74
2023/10/23 05:24:35;;;;;;;1.42;1.40;;;;;;;;;;10373618;28;20593;-74
2023/10/23 05:29:36;;;;;;;1.63;1.52;;;;;;;;;;10386294;28;20238;-75
2023/10/23 05:34:37;;;;;;;1.90;1.80;;;;;;;;;;10378757;28;20313;-74
2023/10/23 05:39:38;;;;;;;2.13;2.03;;;;;;;;;;10385621;28;20691;-75
2023/10/23 05:44:39;;;;;;;2.70;2.45;;;;;;;;;;10378802;28;20288;-74
2023/10/23 05:49:40;;;;;;;2.40;2.20;;;;;;;;;;10382648;28;20625;-76
2023/10/23 05:54:41;;;;;;;3.30;2.25;;;;;;;;;;10385149;28;20239;-75
2023/10/23 05:59:42;;;;;;;2.38;2.03;;;;;;;;;;10386996;28;20211;-75
2023/10/23 06:04:44;;;;;;;3.15;2.50;;;;;;;;;;10382380;28;20576;-75
2023/10/23 06:09:45;;;;;;;2.42;2.22;;;;;;;;;;10382326;28;20214;-75
2023/10/23 06:14:46;;;;;;;2.60;2.50;;;;;;;;;;10364264;28;20262;-74
2023/10/23 06:19:47;;;;;;;5.40;2.80;;;;;;;;;;10378956;28;20293;-75
2023/10/23 06:24:48;;;;;;;2.40;2.30;;;;;;;;;;10387156;28;20217;-74
2023/10/23 06:29:52;;;;;;;7.13;3.15;;;;;;;;;;10386846;28;20277;-74
2023/10/23 06:34:54;;;;;;;2.72;2.38;;;;;;;;;;10378130;28;20274;-76
2023/10/23 06:39:55;;;;;;;3.13;2.75;;;;;;;;;;10380446;28;20219;-75
2023/10/23 06:44:57;;;;;;;5.38;3.65;;;;;;;;;;10383006;28;20692;-76
2023/10/23 06:49:59;;;;;;;4.30;3.92;;;;;;;;;;10382278;28;20724;-74
2023/10/23 06:55:00;;;;;;;3.83;3.53;;;;;;;;;;10377265;28;20211;-75
2023/10/23 07:00:02;;;;;;;4.18;3.45;;;;;;;;;;10381079;28;20222;-76
2023/10/23 07:05:04;;;;;;;5.28;3.60;;;;;;;;;;10376175;28;20258;-74
2023/10/23 07:10:06;;;;;;;4.28;3.88;;;;;;;;;;10384571;28;20947;-74
2023/10/23 07:15:08;;;;;;;4.13;3.33;;;;;;;;;;10381040;28;20283;-76
2023/10/23 07:20:09;;;;;;;3.60;3.30;;;;;;;;;;10382585;28;20586;-74
2023/10/23 07:25:11;;;;;;;4.50;3.90;;;;;;;;;;10362114;28;20216;-75
2023/10/23 07:30:13;;;;;;;5.95;3.92;;;;;;;;;;10385174;28;20220;-75
2023/10/23 07:35:14;;;;;;;4.00;3.70;;;;;;;;;;10385701;28;20201;-75
2023/10/23 07:40:16;;;;;;;3.45;3.15;;;;;;;;;;10390645;28;20223;-75
2023/10/23 07:45:17;;;;;;;4.90;3.10;;;;;;;;;;10386470;28;20246;-75
2023/10/23 07:50:18;;;;;;;3.65;3.45;;;;;;;;;;10399744;28;20825;-75
2023/10/23 07:55:19;;;;;;;3.47;3.20;;;;;;;;;;10375038;28;20653;-76
2023/10/23 08:00:20;;;;;;;3.53;3.28;;;;;;;;;;10382006;28;20192;-74
2023/10/23 08:05:21;;;;;;;3.22;3.03;;;;;;;;;;10383165;28;20822;-74
2023/10/23 08:10:22;;;;;;;4.15;3.40;;;;;;;;;;10385022;28;20307;-75
2023/10/23 08:15:23;;;;;;;3.63;3.28;;;;;;;;;;10385210;28;20744;-77
2023/10/23 08:20:24;;;;;;;4.53;4.00;;;;;;;;;;10387741;28;20565;-75
2023/10/23 08:25:25;;;;;;;3.45;3.30;;;;;;;;;;10385714;28;20228;-76
2023/10/23 08:30:27;;;;;;;3.97;3.55;;;;;;;;;;10385485;28;20686;-77
2023/10/23 08:35:28;;;;;;;5.35;3.88;;;;;;;;;;10386903;28;20246;-74
2023/10/23 08:40:29;;;;;;;6.13;3.53;;;;;;;;;;10377729;28;20230;-76
2023/10/23 08:45:30;;;;;;;4.53;3.63;;;;;;;;;;10384924;28;20222;-75
2023/10/23 08:50:31;;;;;;;3.65;3.35;;;;;;;;;;10379928;28;20232;-74
2023/10/23 08:55:33;;;;;;;3.17;3.00;;;;;;;;;;10385140;28;20239;-74
2023/10/23 09:00:34;;;;;;;2.85;2.75;;;;;;;;;;10399693;28;20699;-76
2023/10/23 09:05:35;;;;;;;3.00;2.90;;;;;;;;;;10376635;28;20590;-75
2023/10/23 09:10:56;;;;;;;2.83;2.72;;;;;;;;;;10369720;28;20272;-74
2023/10/23 09:15:57;;;;;;;3.13;2.92;;;;;;;;;;10378247;28;20219;-75
2023/10/23 09:20:59;;;;;;;2.28;2.17;;;;;;;;;;10381499;28;20215;-75
2023/10/23 09:26:00;;;;;;;2.33;2.22;;;;;;;;;;10381358;28;20215;-74
2023/10/23 09:31:01;;;;;;;1.85;1.80;;;;;;;;;;10391136;28;20578;-75
2023/10/23 09:36:03;;;;;;;1.83;1.83;;;;;;;;;;10377182;28;20212;-77
2023/10/23 09:41:07;;;;;;;1.60;1.60;;;;;;;;;;10382794;28;20713;-75
2023/10/23 09:46:09;;;;;;;1.90;1.80;;;;;;;;;;10385874;28;20220;-75
2023/10/23 09:51:18;;;;;;;2.05;2.00;;;;;;;;;;10397096;28;20811;-76
2023/10/23 09:56:21;;;;;;;1.63;1.63;;;;;;;;;;10373209;28;20211;-75
2023/10/23 10:01:27;;;;;;;1.75;1.65;;;;;;;;;;10385530;28;20238;-74
2023/10/23 10:06:29;;;;;;;1.67;1.63;;;;;;;;;;10380341;28;20693;-79
2023/10/23 10:11:30;;;;;;;2.92;1.55;;;;;;;;;;10400391;28;20270;-79
2023/10/23 10:16:31;;;;;;;1.67;1.58;;;;;;;;;;10406803;28;20242;-76
2023/10/23 10:21:35;;;;;;;1.08;1.08;;;;;;;;;;10392410;28;20211;-77
2023/10/23 10:26:37;;;;;;;1.13;1.00;;;;;;;;;;10388825;28;20407;-77
2023/10/23 10:31:57;;;;;;;1.15;1.15;;;;;;;;;;10383035;28;20230;-76
2023/10/23 10:36:58;;;;;;;1.27;0.80;;;;;;;;;;10378945;28;20212;-76
2023/10/23 10:42:03;;;;;;;0.90;0.90;;;;;;;;;;10387468;28;20220;-76
2023/10/23 10:47:12;;;;;;;0.75;0.68;;;;;;;;;;10378708;28;20302;-75
2023/10/23 10:52:32;;;;;;;1.65;0.77;;;;;;;;;;10383152;28;20223;-77
2023/10/23 10:57:34;;;;;;;0.40;0.40;;;;;;;;;;10384599;28;20731;-75
2023/10/23 11:02:35;;;;;;;0.30;0.30;;;;;;;;;;10385132;28;20235;-76
2023/10/23 11:07:37;;;;;;;0.50;0.50;;;;;;;;;;10392323;28;20207;-75
2023/10/23 11:12:38;;;;;;;0.80;0.40;;;;;;;;;;10407656;28;20362;-76
2023/10/23 11:17:43;;;;;;;0.52;0.52;;;;;;;;;;10403044;28;20211;-76
2023/10/23 11:22:47;;;;;;;1.00;0.57;;;;;;;;;;10377246;28;20714;-76
2023/10/23 11:27:51;;;;;;;0.93;0.73;;;;;;;;;;10392191;28;20230;-76
2023/10/23 11:32:53;;;;;;;0.60;0.60;;;;;;;;;;10391276;28;20616;-75
2023/10/23 11:37:55;;;;;;;0.47;0.47;;;;;;;;;;10396412;28;20204;-77
2023/10/23 11:42:57;;;;;;;0.98;0.75;;;;;;;;;;10383894;28;20702;-76
2023/10/23 11:47:58;;;;;;;0.50;0.50;;;;;;;;;;10378871;28;20238;-77
2023/10/23 11:52:59;;;;;;;0.60;0.60;;;;;;;;;;10379803;28;20219;-76
2023/10/23 11:58:01;;;;;;;0.73;0.55;;;;;;;;;;10374155;28;20257;-77
2023/10/23 12:03:04;;;;;;;0.68;0.68;;;;;;;;;;10377430;28;20218;-78
2023/10/23 12:08:05;;;;;;;1.55;0.70;;;;;;;;;;10384023;28;20212;-78
2023/10/23 12:13:06;;;;;;;1.13;0.60;;;;;;;;;;10383543;28;20227;-78
2023/10/23 12:18:07;;;;;;;1.45;0.50;;;;;;;;;;10382442;28;20223;-77
2023/10/23 12:23:08;;;;;;;0.50;0.50;;;;;;;;;;10390782;28;20231;-78
2023/10/23 12:28:10;;;;;;;0.50;0.50;;;;;;;;;;10384231;28;20261;-78
2023/10/23 12:33:11;;;;;;;0.47;0.47;;;;;;;;;;10380361;28;20208;-78
2023/10/23 12:38:12;;;;;;;0.35;0.30;;;;;;;;;;10381201;28;20598;-76
2023/10/23 12:43:13;;;;;;;0.30;0.30;;;;;;;;;;10380463;28;20636;-77
2023/10/23 12:48:14;;;;;;;0.30;0.30;;;;;;;;;;10380669;28;20207;-77
2023/10/23 12:53:15;;;;;;;0.40;0.40;;;;;;;;;;10379243;28;20250;-78
2023/10/23 12:58:16;;;;;;;0.20;0.20;;;;;;;;;;10388020;28;20215;-77
2023/10/23 13:03:17;;;;;;;0.50;0.50;;;;;;;;;;10378174;28;20311;-77
2023/10/23 13:08:18;;;;;;;0.30;0.30;;;;;;;;;;10393552;28;20215;-77
2023/10/23 13:13:19;;;;;;;0.30;0.30;;;;;;;;;;10387377;28;20215;-77
2023/10/23 13:18:20;;;;;;;0.40;0.40;;;;;;;;;;10378956;28;20222;-77
2023/10/23 13:23:22;;;;;;;2.22;0.50;;;;;;;;;;10374182;28;21013;-76
2023/10/23 13:28:23;;;;;;;0.50;0.50;;;;;;;;;;10379050;28;20322;-76
2023/10/23 13:33:24;;;;;;;0.50;0.50;;;;;;;;;;10374450;28;20298;-76
2023/10/23 13:38:25;;;;;;;0.60;0.60;;;;;;;;;;10380727;28;20207;-77
2023/10/23 13:43:26;;;;;;;0.40;0.40;;;;;;;;;;10373565;28;20219;-77
2023/10/23 13:48:27;;;;;;;0.93;0.50;;;;;;;;;;10362759;28;20693;-74
2023/10/23 13:53:28;;;;;;;0.65;0.65;;;;;;;;;;10365421;28;20688;-76
2023/10/23 13:58:29;;;;;;;0.47;0.47;;;;;;;;;;10378328;28;20222;-74
2023/10/23 14:03:30;;;;;;;0.43;0.43;;;;;;;;;;10376129;28;20315;-75
2023/10/23 14:08:31;;;;;;;0.70;0.55;;;;;;;;;;10376282;28;20222;-76
2023/10/23 14:13:32;;;;;;;0.50;0.50;;;;;;;;;;10371351;28;20216;-76
2023/10/23 14:18:33;;;;;;;0.57;0.57;;;;;;;;;;10381618;28;20224;-75
2023/10/23 14:23:34;;;;;;;0.70;0.70;;;;;;;;;;10377539;28;20588;-75
2023/10/23 14:28:35;;;;;;;1.38;0.50;;;;;;;;;;10373776;28;20226;-73
2023/10/23 14:33:37;;;;;;;0.50;0.50;;;;;;;;;;10370524;28;20725;-73
2023/10/23 14:38:38;;;;;;;1.52;0.60;;;;;;;;;;10376059;28;20215;-75
2023/10/23 14:43:39;;;;;;;0.50;0.50;;;;;;;;;;10370473;28;20216;-74
2023/10/23 14:48:40;;;;;;;1.15;0.88;;;;;;;;;;10357774;28;20373;-73
2023/10/23 14:53:41;;;;;;;0.88;0.80;;;;;;;;;;10370429;28;20636;-74
2023/10/23 14:58:42;;;;;;;1.60;0.80;;;;;;;;;;10368979;28;20265;-74
2023/10/23 15:03:43;;;;;;;1.38;0.82;;;;;;;;;;10366717;28;20236;-74
2023/10/23 15:08:45;;;;;;;1.02;1.02;;;;;;;;;;10371598;28;20291;-74
2023/10/23 15:13:46;;;;;;;1.48;0.90;;;;;;;;;;10375010;28;20219;-76
2023/10/23 15:18:47;;;;;;;0.80;0.80;;;;;;;;;;10370953;28;20239;-77
2023/10/23 15:23:48;;;;;;;0.90;0.90;;;;;;;;;;10355882;28;20239;-77
2023/10/23 15:28:49;;;;;;;2.47;1.10;;;;;;;;;;10330272;28;20225;-77
2023/10/23 15:33:50;;;;;;;1.20;1.20;;;;;;;;;;10288898;28;24747;-77
2023/10/23 15:38:51;;;;;;;1.00;1.00;;;;;;;;;;10322799;28;20244;-77
2023/10/23 15:43:53;;;;;;;1.70;1.27;;;;;;;;;;10325983;28;20232;-77
2023/10/23 15:48:54;;;;;;;2.25;1.70;;;;;;;;;;10321614;28;20220;-77
2023/10/23 15:53:55;;;;;;;1.58;1.42;;;;;;;;;;10314789;28;20217;-77
2023/10/23 15:58:56;;;;;;;1.70;1.63;;;;;;;;;;10373646;28;20702;-77
2023/10/23 16:03:57;;;;;;;3.20;3.00;;;;;;;;;;10364514;28;20216;-77
2023/10/23 16:08:58;;;;;;;3.20;2.90;;;;;;;;;;10379765;28;20223;-77
2023/10/23 16:13:59;;;;;;;2.28;2.05;;;;;;;;;;10376695;28;20573;-77
2023/10/23 16:19:03;;;;;;;2.05;1.95;;;;;;;;;;10399421;28;20211;-77
2023/10/23 16:24:05;;;;;;;2.17;1.95;;;;;;;;;;10369936;28;20587;-75
2023/10/23 16:29:07;;;;;;;2.00;1.90;;;;;;;;;;10368187;28;20752;-75
2023/10/23 16:34:08;;;;;;;2.40;2.20;;;;;;;;;;10368610;28;20246;-75
2023/10/23 16:39:10;;;;;;;2.10;2.10;;;;;;;;;;10375619;28;20245;-75
2023/10/23 16:44:11;;;;;;;2.17;2.08;;;;;;;;;;10369499;28;20212;-74
2023/10/23 16:49:12;;;;;;;3.13;2.05;;;;;;;;;;10377214;28;20222;-76
2023/10/23 16:54:13;;;;;;;2.00;1.90;;;;;;;;;;10365318;28;20219;-76
2023/10/23 16:59:14;;;;;;;6.72;2.42;;;;;;;;;;10377765;28;20450;-76
2023/10/23 17:04:15;;;;;;;2.80;2.55;;;;;;;;;;10375695;28;20239;-74
2023/10/23 17:09:17;;;;;;;2.15;2.05;;;;;;;;;;10365518;28;20219;-76
2023/10/23 17:14:19;;;;;;;2.67;2.35;;;;;;;;;;10355145;28;20246;-75
2023/10/23 17:19:20;;;;;;;3.22;2.75;;;;;;;;;;10369912;28;20285;-77
2023/10/23 17:24:21;;;;;;;3.28;3.08;;;;;;;;;;10372720;28;20315;-78
2023/10/23 17:29:22;;;;;;;5.78;2.90;;;;;;;;;;10370592;28;20231;-77
2023/10/23 17:34:28;;;;;;;3.05;2.78;;;;;;;;;;10371136;28;20214;-77
2023/10/23 17:39:29;;;;;;;3.20;2.90;;;;;;;;;;10369244;28;20215;-75
2023/10/23 17:44:30;;;;;;;3.50;3.28;;;;;;;;;;10360748;28;20222;-77
2023/10/23 17:49:31;;;;;;;3.55;3.25;;;;;;;;;;10366404;28;20277;-76
2023/10/23 17:54:33;;;;;;;3.15;2.95;;;;;;;;;;10363117;28;20250;-76
2023/10/23 17:59:34;;;;;;;3.22;3.08;;;;;;;;;;10364417;28;21231;-77
2023/10/23 18:04:35;;;;;;;3.13;2.92;;;;;;;;;;10366691;28;20651;-76
2023/10/23 18:09:37;;;;;;;2.97;2.78;;;;;;;;;;10361650;28;20452;-76
2023/10/23 18:14:38;;;;;;;3.25;2.95;;;;;;;;;;10360265;28;20214;-76
2023/10/23 18:19:39;;;;;;;3.20;3.00;;;;;;;;;;10351164;28;20218;-77
2023/10/23 18:24:40;;;;;;;3.47;3.17;;;;;;;;;;10365434;28;20240;-77
2023/10/23 18:29:41;;;;;;;3.40;3.20;;;;;;;;;;10360088;28;20229;-74
2023/10/23 18:34:42;;;;;;;4.07;3.42;;;;;;;;;;10360308;28;20835;-75
2023/10/23 18:39:44;;;;;;;2.75;2.65;;;;;;;;;;10359922;28;20268;-74
2023/10/23 18:44:45;;;;;;;3.55;3.35;;;;;;;;;;10347739;28;20407;-74
2023/10/23 18:49:47;;;;;;;3.97;3.70;;;;;;;;;;10357374;28;20215;-74
2023/10/23 18:54:48;;;;;;;4.05;3.85;;;;;;;;;;10363943;28;20207;-74
2023/10/23 18:59:49;;;;;;;4.53;4.22;;;;;;;;;;10361839;28;20204;-74
2023/10/23 19:04:50;;;;;;;4.10;3.90;;;;;;;;;;10363448;28;20219;-75
2023/10/23 19:09:54;;;;;;;4.60;4.13;;;;;;;;;;10362114;28;20649;-74
2023/10/23 19:14:56;;;;;;;4.75;4.45;;;;;;;;;;10367528;28;20232;-74
2023/10/23 19:19:58;;;;;;;5.57;5.18;;;;;;;;;;10360824;28;20216;-73
2023/10/23 19:24:59;;;;;;;5.40;4.80;;;;;;;;;;10365308;28;20239;-74
2023/10/23 19:30:02;;;;;;;5.05;4.57;;;;;;;;;;10368260;28;20741;-74
2023/10/23 19:35:03;;;;;;;5.80;5.30;;;;;;;;;;10365171;28;20705;-75
2023/10/23 19:40:05;;;;;;;5.05;4.60;;;;;;;;;;10352037;28;20215;-75
2023/10/23 19:45:07;;;;;;;5.07;4.60;;;;;;;;;;10368268;28;20199;-75
2023/10/23 19:50:09;;;;;;;6.07;5.45;;;;;;;;;;10365862;28;20297;-75
2023/10/23 19:55:10;;;;;;;6.15;5.40;;;;;;;;;;10369305;28;20736;-75
2023/10/23 20:00:11;;;;;;;7.45;4.72;;;;;;;;;;10383066;28;20215;-74
2023/10/23 20:05:12;;;;;;;5.32;4.82;;;;;;;;;;10353299;28;20816;-74
2023/10/23 20:10:16;;;;;;;5.57;5.03;;;;;;;;;;10355454;28;20754;-74
2023/10/23 20:15:17;;;;;;;7.20;4.65;;;;;;;;;;10397129;28;20220;-75
2023/10/23 20:20:18;;;;;;;5.28;4.90;;;;;;;;;;10371797;28;20176;-75
2023/10/23 20:25:19;;;;;;;7.68;5.65;;;;;;;;;;10373726;28;20686;-75
2023/10/23 20:30:21;;;;;;;5.38;4.88;;;;;;;;;;10366399;28;20244;-75
2023/10/23 20:35:22;;;;;;;6.47;4.65;;;;;;;;;;10385985;28;20203;-75
2023/10/23 20:40:23;;;;;;;4.03;3.80;;;;;;;;;;10358098;28;20216;-75
2023/10/23 20:45:24;;;;;;;4.35;4.05;;;;;;;;;;10373390;28;20923;-75
2023/10/23 20:50:25;;;;;;;4.90;3.95;;;;;;;;;;10392065;28;20223;-75
2023/10/23 20:55:26;;;;;;;6.15;4.78;;;;;;;;;;10372212;28;20239;-76
2023/10/23 21:00:27;;;;;;;4.63;4.22;;;;;;;;;;10369488;28;20685;-75
2023/10/23 21:05:28;;;;;;;4.05;3.70;;;;;;;;;;10377144;28;20269;-75
2023/10/23 21:10:29;;;;;;;4.82;3.72;;;;;;;;;;10376980;28;20845;-75
2023/10/23 21:15:30;;;;;;;3.80;3.50;;;;;;;;;;10377247;28;20697;-75
2023/10/23 21:20:31;;;;;;;3.58;3.47;;;;;;;;;;10374844;28;20308;-76
2023/10/23 21:25:33;;;;;;;3.92;3.55;;;;;;;;;;10374228;28;20219;-75
2023/10/23 21:30:34;;;;;;;3.80;3.50;;;;;;;;;;10378239;28;20643;-76
2023/10/23 21:35:35;;;;;;;3.53;3.33;;;;;;;;;;10374920;28;20444;-75
2023/10/23 21:40:36;;;;;;;3.85;3.55;;;;;;;;;;10375520;28;20295;-75
2023/10/23 21:45:37;;;;;;;3.53;2.90;;;;;;;;;;10375020;28;20220;-75
2023/10/23 21:50:42;;;;;;;4.03;3.05;;;;;;;;;;10373763;28;20256;-75
2023/10/23 21:55:43;;;;;;;3.60;3.40;;;;;;;;;;10371674;28;20219;-75
2023/10/23 22:00:44;;;;;;;3.92;3.25;;;;;;;;;;10363189;28;20230;-74
2023/10/23 22:05:47;;;;;;;3.58;3.38;;;;;;;;;;10374378;28;20212;-75
2023/10/23 22:10:48;;;;;;;3.85;3.55;;;;;;;;;;10364400;28;20336;-75
2023/10/23 22:15:49;;;;;;;2.85;2.75;;;;;;;;;;10380771;28;20215;-75
2023/10/23 22:20:50;;;;;;;3.20;3.08;;;;;;;;;;10371417;28;20211;-75
2023/10/23 22:25:54;;;;;;;3.30;2.95;;;;;;;;;;10368388;28;20268;-75
2023/10/23 22:30:55;;;;;;;3.13;2.92;;;;;;;;;;10388973;28;20605;-75
2023/10/23 22:35:56;;;;;;;3.70;3.45;;;;;;;;;;10378410;28;20246;-75
2023/10/23 22:40:57;;;;;;;3.53;3.33;;;;;;;;;;10373351;28;20220;-76
2023/10/23 22:45:59;;;;;;;4.03;2.47;;;;;;;;;;10380137;28;20220;-75
2023/10/23 22:51:01;;;;;;;3.38;3.17;;;;;;;;;;10369107;28;20222;-75
2023/10/23 22:56:02;;;;;;;3.42;3.13;;;;;;;;;;10359894;28;20250;-75
2023/10/23 23:01:03;;;;;;;2.90;2.72;;;;;;;;;;10379691;28;20269;-75
2023/10/23 23:06:05;;;;;;;2.60;2.42;;;;;;;;;;10381979;28;20251;-75
2023/10/23 23:11:06;;;;;;;4.25;3.08;;;;;;;;;;10386939;28;20226;-75
2023/10/23 23:16:08;;;;;;;3.28;2.97;;;;;;;;;;10379073;28;20698;-75
2023/10/23 23:21:10;;;;;;;2.58;2.47;;;;;;;;;;10381626;28;20218;-75
2023/10/23 23:26:11;;;;;;;2.83;2.72;;;;;;;;;;10376916;28;20247;-75
2023/10/23 23:31:12;;;;;;;2.70;2.50;;;;;;;;;;10367059;28;20787;-75
2023/10/23 23:36:13;;;;;;;2.22;2.10;;;;;;;;;;10381884;28;20216;-75
2023/10/23 23:41:14;;;;;;;2.58;2.38;;;;;;;;;;10382325;28;20222;-75
2023/10/23 23:46:16;;;;;;;2.75;2.65;;;;;;;;;;10385052;28;20768;-75
2023/10/23 23:51:17;;;;;;;2.80;2.65;;;;;;;;;;10379064;28;20728;-75
2023/10/23 23:56:18;;;;;;;2.30;2.20;;;;;;;;;;10363718;28;20226;-75
